Baucum, Arkansas
Current Conditions -  °F | °C
As of 6:53 PM on Wednesday 22 Oct 2014 (Local Time) from KLIT Reporting Station
Clear Clear  
Wind Chill: 59°   Ceiling: Unl
Heat Index: 59°   Visibility: 10mi
Dew Point: 47°   Wind: 6mph
Humidity: 64%   Direction: 60°ENE
Pressure: 30.16"   Gusts: NA
Location:  34.757°N, 92.1411°W
Report Text: KLIT 222353Z 06005KT 10SM CLR 15/08 A3016 RMK AO2 SLP214 T01500083 10228 20150 56004
Loading
Personal Weather Stations






























Interactive Weather Map
Tropical Storm Tracking
New forecast layout! Learn more

10-Day Weather Forecast

Advertisements
Track Severe Weather on mobile